Main page
METAR-TAF:

METAR-TAF

Airports :

Algiers, Algeria

Houari Boumediene Airport

latitude: 36-43N, longitude: 003-15E, elevation: 25 m

Current weather observation

The report was made 15 minutes ago, at 11:30 UTC
Wind 18 kt from the Northeast
Temperature 30°C
Humidity 40%
Pressure 1019 hPa
Visibility 10 km or more
no clouds below 1500 m and no cumulonimbus

METAR: DAAG 211130Z 04018KT CAVOK 30/15 Q1019

Time: 12:45 (11:45 UTC)

Forecast

The report was made 45 minutes ago, at 11:00 UTC
Forecast valid from 21 at 12 UTC to 22 at 12 UTC
Wind 18 kt from the Northeast
Visibility 10 km or more
Few clouds at a height of 2600 ft
Becoming
from 21 at 19 UTC to 21 at 22 UTC
Wind 2 kt from variable directions
Becoming
from 22 at 07 UTC to 22 at 10 UTC
Wind 12 kt from the Northeast

TAF: DAAG 211100Z 2112/2212 04018KT 9999 FEW026 BECMG 2119/2122 VRB02KT BECMG 2207/2210 04012KT

Weather observations and forecasts of more than 4000 airports (METAR and TAF reports).

The available stations are represented by yellow and red dots on the map.

Hover mouse over dot to see the name of the station.

Then click to see weather observations and forecasts.

To change the map : click on the green buttons with a black cross to zoom in, on the green button with a dash to zoom out, or on the green arrows for adjacent maps.


METAR-TAF: